createdAt,value
2018-12-22T00:00:24.785Z,94.30
2018-12-22T00:02:53.217Z,94.40
2018-12-22T00:05:21.587Z,94.40
2018-12-22T00:07:49.807Z,94.40
2018-12-22T00:10:18.066Z,94.50
2018-12-22T00:12:46.350Z,94.60
2018-12-22T00:15:14.695Z,94.60
2018-12-22T00:17:42.969Z,94.60
2018-12-22T00:20:11.180Z,94.60
2018-12-22T00:22:39.425Z,94.60
2018-12-22T00:25:07.702Z,94.60
2018-12-22T00:27:35.999Z,94.60
2018-12-22T00:30:05.533Z,94.60
2018-12-22T00:32:33.791Z,94.60
2018-12-22T00:35:02.214Z,94.50
2018-12-22T00:37:30.511Z,94.90
2018-12-22T00:39:58.813Z,94.50
2018-12-22T00:42:27.046Z,94.40
2018-12-22T00:44:55.264Z,94.40
2018-12-22T00:47:23.563Z,94.50
2018-12-22T00:49:52.003Z,94.50
2018-12-22T00:52:20.313Z,94.60
2018-12-22T00:54:48.697Z,94.60
2018-12-22T00:57:17.070Z,94.60
2018-12-22T00:59:45.345Z,94.70
2018-12-22T01:02:13.617Z,94.80
2018-12-22T01:04:41.880Z,94.80
2018-12-22T01:07:10.138Z,95.20
2018-12-22T01:09:38.367Z,94.90
2018-12-22T01:12:06.625Z,95.00
2018-12-22T01:14:34.988Z,95.00
2018-12-22T01:17:03.261Z,95.10
2018-12-22T01:19:31.674Z,95.10
2018-12-22T01:21:59.943Z,95.10
2018-12-22T01:24:28.213Z,95.10
2018-12-22T01:26:56.509Z,95.00
2018-12-22T01:29:24.765Z,95.00
2018-12-22T01:31:53.105Z,95.00
2018-12-22T01:34:21.418Z,95.00
2018-12-22T01:36:49.644Z,94.90
2018-12-22T01:39:17.907Z,94.90
2018-12-22T01:41:46.150Z,94.90
2018-12-22T01:44:14.426Z,94.90
2018-12-22T01:46:42.661Z,95.00
2018-12-22T01:49:11.038Z,94.90
2018-12-22T01:51:39.291Z,95.00
2018-12-22T01:54:07.526Z,95.00
2018-12-22T01:56:35.727Z,95.00
2018-12-22T01:59:04.132Z,95.30
2018-12-22T02:01:32.402Z,95.30
2018-12-22T02:04:00.713Z,95.40
2018-12-22T02:06:28.960Z,95.60
2018-12-22T02:08:57.182Z,95.80
2018-12-22T02:11:25.425Z,95.80
2018-12-22T02:13:53.682Z,95.90
2018-12-22T02:16:21.997Z,95.90
2018-12-22T02:18:50.249Z,96.00
2018-12-22T02:21:18.503Z,96.30
2018-12-22T02:23:46.740Z,96.00
2018-12-22T02:26:14.980Z,96.00
2018-12-22T02:28:43.234Z,95.90
2018-12-22T02:31:11.479Z,96.00
2018-12-22T02:33:39.716Z,95.90
2018-12-22T02:36:08.021Z,95.80
2018-12-22T02:38:36.271Z,95.70
2018-12-22T02:41:04.589Z,95.70
2018-12-22T02:43:32.892Z,95.60
2018-12-22T02:46:01.142Z,95.50
2018-12-22T02:48:29.446Z,95.50
2018-12-22T02:50:57.665Z,95.50
2018-12-22T02:53:25.913Z,95.40
2018-12-22T02:55:54.152Z,95.40
2018-12-22T02:58:22.608Z,95.30
2018-12-22T03:00:51.405Z,95.30
2018-12-22T03:03:19.696Z,95.30
2018-12-22T03:05:47.922Z,95.20
2018-12-22T03:08:16.156Z,95.20
2018-12-22T03:10:44.427Z,95.20
2018-12-22T03:13:12.732Z,95.20
2018-12-22T03:15:40.984Z,95.30
2018-12-22T03:18:09.277Z,95.30
2018-12-22T03:20:37.507Z,95.30
2018-12-22T03:23:05.822Z,95.30
2018-12-22T03:25:34.122Z,95.30
2018-12-22T03:28:02.446Z,95.20
2018-12-22T03:30:30.707Z,95.10
2018-12-22T03:32:59.058Z,95.30
2018-12-22T03:35:27.271Z,95.60
2018-12-22T03:37:55.522Z,95.80
2018-12-22T03:40:23.754Z,95.70
2018-12-22T03:42:51.999Z,95.90
2018-12-22T03:45:20.334Z,95.90
2018-12-22T03:47:48.609Z,96.00
2018-12-22T03:50:16.841Z,96.00
2018-12-22T03:52:45.104Z,96.10
2018-12-22T03:55:13.403Z,96.50
2018-12-22T03:57:41.757Z,97.00
2018-12-22T04:00:10.237Z,97.20
2018-12-22T04:02:38.526Z,97.70
2018-12-22T04:05:07.506Z,98.30
2018-12-22T04:07:35.998Z,98.90
2018-12-22T04:10:05.376Z,99.40
2018-12-22T04:12:34.006Z,99.90
2018-12-22T04:15:02.294Z,99.90
2018-12-22T04:17:30.528Z,99.90
2018-12-22T04:19:58.788Z,99.90
2018-12-22T04:22:27.133Z,99.90
2018-12-22T04:24:55.615Z,99.90
2018-12-22T04:27:23.826Z,99.90
2018-12-22T04:29:52.171Z,99.90
2018-12-22T04:32:20.413Z,99.90
2018-12-22T04:34:48.662Z,99.90
2018-12-22T04:37:16.953Z,99.90
2018-12-22T04:39:45.179Z,99.90
2018-12-22T04:42:13.386Z,99.90
2018-12-22T04:44:41.750Z,99.90
2018-12-22T04:47:09.969Z,99.90
2018-12-22T04:49:38.220Z,99.90
2018-12-22T04:52:06.444Z,99.90
2018-12-22T04:54:34.726Z,99.90
2018-12-22T04:57:03.070Z,99.90
2018-12-22T04:59:31.348Z,99.90
2018-12-22T05:01:59.646Z,99.90
2018-12-22T05:04:27.962Z,99.90
2018-12-22T05:06:56.337Z,99.90
2018-12-22T05:09:24.557Z,99.90
2018-12-22T05:11:52.861Z,99.90
2018-12-22T05:14:21.096Z,99.90
2018-12-22T05:16:49.354Z,99.90
2018-12-22T05:19:17.657Z,99.90
2018-12-22T05:21:45.881Z,99.90
2018-12-22T05:24:14.156Z,99.90
2018-12-22T05:26:42.463Z,99.90
2018-12-22T05:29:10.744Z,99.90
2018-12-22T05:31:38.962Z,99.90
2018-12-22T05:34:07.278Z,99.90
2018-12-22T05:36:35.752Z,99.90
2018-12-22T05:39:06.740Z,99.90
2018-12-22T05:41:35.073Z,99.90
2018-12-22T05:44:03.316Z,99.90
2018-12-22T05:46:31.571Z,99.90
2018-12-22T05:48:59.787Z,99.90
2018-12-22T05:51:28.002Z,99.90
2018-12-22T05:53:56.299Z,99.90
2018-12-22T05:56:24.602Z,99.90
2018-12-22T05:58:52.821Z,99.90
2018-12-22T06:01:21.160Z,99.90
2018-12-22T06:03:49.500Z,99.90
2018-12-22T06:06:17.786Z,99.90
2018-12-22T06:08:46.008Z,99.90
2018-12-22T06:11:14.299Z,99.90
2018-12-22T06:13:42.669Z,99.90
2018-12-22T06:16:10.915Z,99.90
2018-12-22T06:18:39.172Z,99.90
2018-12-22T06:21:07.437Z,99.90
2018-12-22T06:23:35.708Z,99.90
2018-12-22T06:26:03.987Z,99.90
2018-12-22T06:28:32.333Z,99.90
2018-12-22T06:31:00.641Z,99.90
2018-12-22T06:33:28.884Z,99.90
2018-12-22T06:35:57.233Z,99.90
2018-12-22T06:38:25.547Z,99.90
2018-12-22T06:40:53.836Z,99.90
2018-12-22T06:43:22.136Z,99.90
2018-12-22T06:45:50.443Z,99.90
2018-12-22T06:48:18.680Z,99.90
2018-12-22T06:50:46.955Z,99.90
2018-12-22T06:53:15.229Z,99.90
2018-12-22T06:55:43.495Z,99.90
2018-12-22T06:58:11.756Z,99.90
2018-12-22T07:00:40.067Z,99.90
2018-12-22T07:03:08.636Z,99.90
2018-12-22T07:05:37.007Z,99.90
2018-12-22T07:08:05.249Z,99.90
2018-12-22T07:10:33.554Z,99.90
2018-12-22T07:13:01.847Z,99.90
2018-12-22T07:15:30.226Z,99.90
2018-12-22T07:17:58.458Z,99.90
2018-12-22T07:20:26.830Z,99.90
2018-12-22T07:22:55.082Z,99.90
2018-12-22T07:25:23.402Z,99.90
2018-12-22T07:27:51.654Z,99.90
2018-12-22T07:30:26.058Z,99.90
2018-12-22T07:32:56.900Z,99.90
2018-12-22T07:35:20.437Z,99.90
2018-12-22T07:37:48.709Z,99.90
2018-12-22T07:40:17.032Z,99.90
2018-12-22T07:42:45.284Z,99.90
2018-12-22T07:45:13.512Z,99.90
2018-12-22T07:47:41.798Z,99.90
2018-12-22T07:50:10.118Z,99.90
2018-12-22T07:52:38.415Z,99.90
2018-12-22T07:55:06.957Z,99.90
2018-12-22T07:57:35.297Z,99.90
2018-12-22T08:00:03.838Z,99.90
2018-12-22T08:02:32.149Z,99.90
2018-12-22T08:05:00.463Z,99.90
2018-12-22T08:07:28.829Z,99.90
2018-12-22T08:09:57.182Z,99.90
2018-12-22T08:12:25.560Z,99.90
2018-12-22T08:14:53.866Z,99.90
2018-12-22T08:17:22.092Z,99.90
2018-12-22T08:19:50.424Z,99.90
2018-12-22T08:22:18.727Z,99.90
2018-12-22T08:24:47.098Z,99.90
2018-12-22T08:27:15.348Z,99.90
2018-12-22T08:29:43.667Z,99.90
2018-12-22T08:32:12.107Z,99.90
2018-12-22T08:34:40.413Z,99.90
2018-12-22T08:37:08.708Z,99.90
2018-12-22T08:39:37.024Z,99.90
2018-12-22T08:42:05.316Z,99.90
2018-12-22T08:44:33.610Z,99.90
2018-12-22T08:47:01.849Z,99.90
2018-12-22T08:49:30.131Z,99.90
2018-12-22T08:51:58.361Z,99.90
2018-12-22T08:54:26.664Z,99.90
2018-12-22T08:56:54.947Z,99.90
2018-12-22T08:59:23.248Z,99.90
2018-12-22T09:01:51.488Z,99.90
2018-12-22T09:04:19.801Z,99.90
2018-12-22T09:06:48.095Z,99.90
2018-12-22T09:09:16.382Z,99.90
2018-12-22T09:11:44.943Z,99.90
2018-12-22T09:14:13.260Z,99.90
2018-12-22T09:16:41.576Z,99.90
2018-12-22T09:19:09.907Z,99.90
2018-12-22T09:21:38.466Z,99.90
2018-12-22T09:24:06.917Z,99.90
2018-12-22T09:26:35.185Z,99.90
2018-12-22T09:29:03.456Z,99.90
2018-12-22T09:31:33.128Z,99.90
2018-12-22T09:34:01.979Z,99.80
2018-12-22T09:36:30.255Z,99.70
2018-12-22T09:38:58.492Z,99.50
2018-12-22T09:41:26.848Z,99.50
2018-12-22T09:43:55.322Z,99.40
2018-12-22T09:46:23.691Z,99.30
2018-12-22T09:48:52.164Z,99.30
2018-12-22T09:51:20.651Z,99.20
2018-12-22T09:53:49.247Z,99.20
2018-12-22T09:56:17.589Z,99.10
2018-12-22T09:58:45.895Z,99.00
2018-12-22T10:01:14.151Z,99.00
2018-12-22T10:03:42.519Z,98.70
2018-12-22T10:06:10.837Z,98.70
2018-12-22T10:08:39.138Z,98.60
2018-12-22T10:11:07.450Z,98.80
2018-12-22T10:13:35.745Z,98.70
2018-12-22T10:16:04.045Z,98.60
2018-12-22T10:18:32.321Z,98.60
2018-12-22T10:21:00.648Z,98.40
2018-12-22T10:23:28.913Z,98.40
2018-12-22T10:25:57.227Z,98.40
2018-12-22T10:28:25.515Z,98.50
2018-12-22T10:30:53.781Z,98.40
2018-12-22T10:33:22.038Z,98.70
2018-12-22T10:35:50.339Z,98.80
2018-12-22T10:38:18.669Z,98.90
2018-12-22T10:40:47.043Z,99.00
2018-12-22T10:43:15.370Z,98.90
2018-12-22T10:45:43.592Z,98.90
2018-12-22T10:48:11.970Z,98.90
2018-12-22T10:50:40.373Z,99.50
2018-12-22T10:53:08.631Z,99.70
2018-12-22T10:55:37.021Z,99.90
2018-12-22T10:58:05.700Z,99.90
2018-12-22T11:00:34.192Z,99.90
2018-12-22T11:03:02.487Z,99.90
2018-12-22T11:05:30.757Z,99.90
2018-12-22T11:07:59.638Z,99.90
2018-12-22T11:10:28.479Z,99.90
2018-12-22T11:12:59.178Z,99.90
2018-12-22T11:15:27.428Z,99.90
2018-12-22T11:17:55.737Z,99.80
2018-12-22T11:20:24.028Z,99.50
2018-12-22T11:22:52.346Z,99.30
2018-12-22T11:25:23.238Z,99.20
2018-12-22T11:27:51.632Z,99.00
2018-12-22T11:30:28.197Z,99.00
2018-12-22T11:32:56.446Z,98.80
2018-12-22T11:35:24.727Z,98.80
2018-12-22T11:37:53.360Z,98.80
2018-12-22T11:40:21.867Z,98.80
2018-12-22T11:42:50.268Z,99.10
2018-12-22T11:45:18.573Z,99.10
2018-12-22T11:48:09.123Z,99.30
2018-12-22T11:50:37.402Z,99.20
2018-12-22T11:53:05.697Z,99.10
2018-12-22T11:55:34.213Z,99.00
2018-12-22T11:58:03.061Z,99.00
2018-12-22T12:00:31.489Z,98.80
2018-12-22T12:02:59.921Z,98.80
2018-12-22T12:05:28.274Z,98.60
2018-12-22T12:07:56.574Z,98.50
2018-12-22T12:10:24.907Z,98.50
2018-12-22T12:12:53.347Z,98.30
2018-12-22T12:15:24.822Z,98.20
2018-12-22T12:18:09.291Z,98.10
2018-12-22T12:20:37.797Z,98.10
2018-12-22T12:23:06.073Z,98.10
2018-12-22T12:25:34.487Z,97.90
2018-12-22T12:28:02.827Z,97.70
2018-12-22T12:30:31.475Z,97.40
2018-12-22T12:32:59.789Z,97.50
2018-12-22T12:35:28.232Z,97.40
2018-12-22T12:37:56.541Z,97.30
2018-12-22T12:40:24.828Z,97.40
2018-12-22T12:42:53.115Z,97.20
2018-12-22T12:45:21.624Z,97.10
2018-12-22T12:47:50.471Z,96.90
2018-12-22T12:50:20.832Z,96.90
2018-12-22T12:52:49.194Z,96.90
2018-12-22T12:55:17.546Z,96.80
2018-12-22T12:57:45.800Z,96.70
2018-12-22T13:00:16.004Z,96.60
2018-12-22T13:02:44.357Z,96.90
2018-12-22T13:05:12.777Z,96.60
2018-12-22T13:07:41.160Z,96.60
2018-12-22T13:10:11.165Z,96.60
2018-12-22T13:12:48.283Z,96.50
2018-12-22T13:15:16.562Z,96.90
2018-12-22T13:17:44.819Z,96.90
2018-12-22T13:20:13.284Z,96.60
2018-12-22T13:22:41.589Z,96.70
2018-12-22T13:25:09.958Z,96.70
2018-12-22T13:27:38.271Z,97.00
2018-12-22T13:30:08.841Z,96.40
2018-12-22T13:32:37.242Z,96.60
2018-12-22T13:35:07.757Z,96.50
2018-12-22T13:37:36.160Z,96.40
2018-12-22T13:40:05.630Z,96.20
2018-12-22T13:42:34.713Z,96.30
2018-12-22T13:45:03.161Z,96.40
2018-12-22T13:47:31.465Z,96.50
2018-12-22T13:50:00.022Z,96.80
2018-12-22T13:52:28.462Z,97.00
2018-12-22T13:54:56.780Z,97.20
2018-12-22T13:57:25.512Z,97.20
2018-12-22T13:59:53.899Z,97.30
2018-12-22T14:02:22.195Z,97.40
2018-12-22T14:04:50.442Z,97.40
2018-12-22T14:07:18.726Z,97.40
2018-12-22T14:09:47.032Z,97.30
2018-12-22T14:12:15.349Z,97.20
2018-12-22T14:14:43.693Z,97.20
2018-12-22T14:17:19.803Z,97.30
2018-12-22T14:19:55.220Z,97.30
2018-12-22T14:22:23.490Z,97.40
2018-12-22T14:24:53.288Z,97.50
2018-12-22T14:27:21.678Z,97.20
2018-12-22T14:29:49.958Z,97.70
2018-12-22T14:32:26.725Z,97.60
2018-12-22T14:34:56.242Z,97.40
2018-12-22T14:37:24.508Z,97.40
2018-12-22T14:39:52.836Z,97.50
2018-12-22T14:42:21.101Z,97.70
2018-12-22T14:44:49.467Z,97.70
2018-12-22T14:47:17.756Z,97.80
2018-12-22T14:49:46.133Z,97.70
2018-12-22T14:52:14.404Z,97.70
2018-12-22T14:54:42.783Z,97.70
2018-12-22T14:57:12.070Z,97.60
2018-12-22T14:59:40.458Z,97.60
2018-12-22T15:02:08.766Z,97.50
2018-12-22T15:04:37.065Z,97.60
2018-12-22T15:07:06.630Z,97.60
2018-12-22T15:09:35.797Z,97.40
2018-12-22T15:12:04.181Z,97.40
2018-12-22T15:14:32.417Z,97.50
2018-12-22T15:17:00.662Z,97.50
2018-12-22T15:19:29.462Z,97.60
2018-12-22T15:21:59.373Z,97.60
2018-12-22T15:24:27.701Z,97.70
2018-12-22T15:26:56.043Z,97.80
2018-12-22T15:29:24.439Z,97.80
2018-12-22T15:31:52.683Z,97.90
2018-12-22T15:34:20.981Z,97.80
2018-12-22T15:36:49.299Z,97.80
2018-12-22T15:39:17.588Z,97.90
2018-12-22T15:41:45.827Z,98.00
2018-12-22T15:44:14.178Z,97.90
2018-12-22T15:46:42.475Z,98.10
2018-12-22T15:49:11.932Z,98.30
2018-12-22T15:51:40.189Z,98.50
2018-12-22T15:54:08.434Z,98.50
2018-12-22T15:56:36.849Z,98.80
2018-12-22T15:59:05.065Z,98.40
2018-12-22T16:01:33.688Z,98.40
2018-12-22T16:04:02.038Z,98.40
2018-12-22T16:06:30.319Z,98.40
2018-12-22T16:08:58.735Z,98.40
2018-12-22T16:11:27.334Z,98.30
2018-12-22T16:13:55.605Z,98.50
2018-12-22T16:16:24.087Z,98.50
2018-12-22T16:18:52.533Z,98.40
2018-12-22T16:21:20.765Z,98.50
2018-12-22T16:23:49.095Z,98.30
2018-12-22T16:26:17.393Z,98.50
2018-12-22T16:28:49.575Z,98.50
2018-12-22T16:31:17.834Z,98.90
2018-12-22T16:33:46.159Z,98.60
2018-12-22T16:36:14.421Z,98.90
2018-12-22T16:38:42.682Z,98.70
2018-12-22T16:41:10.920Z,98.80
2018-12-22T16:43:40.051Z,99.00
2018-12-22T16:46:08.316Z,98.90
2018-12-22T16:48:37.580Z,99.10
2018-12-22T16:51:05.858Z,99.20
2018-12-22T16:53:34.104Z,99.20
2018-12-22T16:56:02.386Z,99.30
2018-12-22T16:58:35.079Z,99.40
2018-12-22T17:01:15.037Z,99.60
2018-12-22T17:03:43.303Z,99.70
2018-12-22T17:06:12.589Z,99.80
2018-12-22T17:08:40.936Z,99.80
2018-12-22T17:11:09.261Z,99.90
2018-12-22T17:13:37.622Z,99.90
2018-12-22T17:16:06.209Z,99.90
2018-12-22T17:18:34.568Z,99.90
2018-12-22T17:21:13.166Z,99.90
2018-12-22T17:23:48.166Z,99.90
2018-12-22T17:26:16.519Z,99.90
2018-12-22T17:28:44.908Z,99.90
2018-12-22T17:31:13.204Z,99.80
2018-12-22T17:33:41.460Z,99.70
2018-12-22T17:36:09.719Z,99.60
2018-12-22T17:38:38.094Z,99.50
2018-12-22T17:41:06.332Z,99.40
2018-12-22T17:43:35.059Z,99.30
2018-12-22T17:46:03.424Z,99.30
2018-12-22T17:48:31.833Z,99.20
2018-12-22T17:51:00.036Z,99.10
2018-12-22T17:53:28.283Z,99.10
2018-12-22T17:55:56.741Z,99.10
2018-12-22T17:58:24.982Z,99.10
2018-12-22T18:00:53.328Z,99.10
2018-12-22T18:03:27.557Z,98.60
2018-12-22T18:05:54.301Z,98.90
2018-12-22T18:08:22.523Z,98.80
2018-12-22T18:10:50.760Z,98.80
2018-12-22T18:13:19.010Z,98.90
2018-12-22T18:15:47.267Z,99.00
2018-12-22T18:18:15.507Z,98.90
2018-12-22T18:20:43.823Z,99.00
2018-12-22T18:23:12.062Z,99.30
2018-12-22T18:25:40.331Z,99.00
2018-12-22T18:28:08.565Z,99.20
2018-12-22T18:30:36.881Z,99.30
2018-12-22T18:33:05.140Z,99.30
2018-12-22T18:35:33.356Z,99.40
2018-12-22T18:38:01.641Z,99.50
2018-12-22T18:40:29.888Z,99.60
2018-12-22T18:42:58.149Z,99.70
2018-12-22T18:45:26.461Z,99.80
2018-12-22T18:47:54.735Z,99.80
2018-12-22T18:50:24.968Z,99.90
2018-12-22T18:52:53.193Z,99.90
2018-12-22T18:55:21.530Z,99.90
2018-12-22T18:57:52.562Z,99.90
2018-12-22T19:00:22.246Z,99.90
2018-12-22T19:02:51.174Z,99.90
2018-12-22T19:05:20.762Z,99.90
2018-12-22T19:07:50.266Z,99.90
2018-12-22T19:10:26.611Z,99.90
2018-12-22T19:12:56.160Z,99.90
2018-12-22T19:15:24.631Z,99.90
2018-12-22T19:17:52.877Z,99.90
2018-12-22T19:20:26.185Z,99.90
2018-12-22T19:22:54.411Z,99.90
2018-12-22T19:25:22.715Z,99.90
2018-12-22T19:27:50.930Z,99.90
2018-12-22T19:30:20.305Z,99.90
2018-12-22T19:32:48.550Z,99.90
2018-12-22T19:35:16.793Z,99.90
2018-12-22T19:37:45.011Z,99.90
2018-12-22T19:40:13.269Z,99.90
2018-12-22T19:42:41.533Z,99.90
2018-12-22T19:45:10.039Z,99.90
2018-12-22T19:47:38.290Z,99.90
2018-12-22T19:50:07.024Z,99.90
2018-12-22T19:52:35.262Z,99.90
2018-12-22T19:55:03.597Z,99.90
2018-12-22T19:57:32.004Z,99.90
2018-12-22T20:00:00.315Z,99.90
2018-12-22T20:02:28.607Z,99.90
2018-12-22T20:04:56.966Z,99.90
2018-12-22T20:07:25.630Z,99.90
2018-12-22T20:09:53.841Z,99.90
2018-12-22T20:12:22.095Z,99.90
2018-12-22T20:14:50.748Z,99.90
2018-12-22T20:17:19.002Z,99.90
2018-12-22T20:19:47.265Z,99.90
2018-12-22T20:22:15.639Z,99.90
2018-12-22T20:24:49.554Z,99.90
2018-12-22T20:27:17.874Z,99.90
2018-12-22T20:29:46.129Z,99.90
2018-12-22T20:32:14.358Z,99.90
2018-12-22T20:34:42.631Z,99.90
2018-12-22T20:37:11.122Z,99.90
2018-12-22T20:39:39.359Z,99.90
2018-12-22T20:42:07.760Z,99.90
2018-12-22T20:44:36.022Z,99.90
2018-12-22T20:47:04.224Z,99.90
2018-12-22T20:49:32.531Z,99.90
2018-12-22T20:52:01.117Z,99.90
2018-12-22T20:54:29.486Z,99.90
2018-12-22T20:56:57.714Z,99.90
2018-12-22T20:59:26.237Z,99.90
2018-12-22T21:01:54.573Z,99.90
2018-12-22T21:04:22.896Z,99.90
2018-12-22T21:06:51.167Z,99.90
2018-12-22T21:09:19.383Z,99.90
2018-12-22T21:11:47.674Z,99.90
2018-12-22T21:14:15.943Z,99.90
2018-12-22T21:16:44.194Z,99.90
2018-12-22T21:19:12.440Z,99.90
2018-12-22T21:21:40.737Z,99.90
2018-12-22T21:24:09.104Z,99.90
2018-12-22T21:26:37.785Z,99.90
2018-12-22T21:29:06.079Z,99.90
2018-12-22T21:31:34.401Z,99.90
2018-12-22T21:34:02.670Z,99.90
2018-12-22T21:36:30.946Z,99.90
2018-12-22T21:38:59.443Z,99.90
2018-12-22T21:41:27.731Z,99.90
2018-12-22T21:43:56.009Z,99.90
2018-12-22T21:46:24.280Z,99.90
2018-12-22T21:48:52.538Z,99.90
2018-12-22T21:51:20.855Z,99.90
2018-12-22T21:53:49.122Z,99.90
2018-12-22T21:56:17.412Z,99.90
2018-12-22T21:58:45.805Z,99.90
2018-12-22T22:01:14.137Z,99.90
2018-12-22T22:03:42.451Z,99.90
2018-12-22T22:06:10.681Z,99.90
2018-12-22T22:08:38.920Z,99.90
2018-12-22T22:11:07.167Z,99.90
2018-12-22T22:13:35.444Z,99.90
2018-12-22T22:16:03.718Z,99.90
2018-12-22T22:18:31.976Z,99.90
2018-12-22T22:21:00.234Z,99.90
2018-12-22T22:23:28.525Z,99.90
2018-12-22T22:25:56.781Z,99.90
2018-12-22T22:28:25.071Z,99.90
2018-12-22T22:30:53.318Z,99.90
2018-12-22T22:33:21.868Z,99.90
2018-12-22T22:35:50.179Z,99.90
2018-12-22T22:38:18.421Z,99.90
2018-12-22T22:40:46.734Z,99.90
2018-12-22T22:43:15.018Z,99.90
2018-12-22T22:45:43.299Z,99.90
2018-12-22T22:48:11.698Z,99.90
2018-12-22T22:50:39.953Z,99.90
2018-12-22T22:53:08.195Z,99.90
2018-12-22T22:55:36.453Z,99.90
2018-12-22T22:58:04.760Z,99.90
2018-12-22T23:00:36.457Z,99.90
2018-12-22T23:03:05.096Z,99.90
2018-12-22T23:05:33.513Z,99.90
2018-12-22T23:08:01.802Z,99.90
2018-12-22T23:10:30.190Z,99.90
2018-12-22T23:12:58.506Z,99.90
2018-12-22T23:15:26.791Z,99.90
2018-12-22T23:17:55.139Z,99.90
2018-12-22T23:20:23.430Z,99.90
2018-12-22T23:22:51.726Z,99.90
2018-12-22T23:25:20.059Z,99.90
2018-12-22T23:27:48.378Z,99.90
2018-12-22T23:30:16.692Z,99.90
2018-12-22T23:32:44.894Z,99.90
2018-12-22T23:35:13.168Z,99.90
2018-12-22T23:37:41.415Z,99.90
2018-12-22T23:40:09.764Z,99.90
2018-12-22T23:42:38.132Z,99.90
2018-12-22T23:45:06.887Z,99.90
2018-12-22T23:47:35.153Z,99.90
2018-12-22T23:50:04.178Z,99.90
2018-12-22T23:52:32.482Z,99.90
2018-12-22T23:55:00.735Z,99.90
2018-12-22T23:57:28.947Z,99.90
2018-12-22T23:59:57.316Z,99.90
